createdAt,value
2022-10-19T00:02:15.268Z,15.89
2022-10-19T00:04:42.850Z,15.88
2022-10-19T00:07:11.962Z,15.98
2022-10-19T00:09:39.747Z,15.89
2022-10-19T00:12:07.349Z,15.89
2022-10-19T00:14:34.916Z,16.00
2022-10-19T00:17:02.750Z,15.80
2022-10-19T00:19:30.382Z,15.83
2022-10-19T00:21:57.890Z,15.76
2022-10-19T00:24:26.879Z,15.96
2022-10-19T00:26:54.756Z,15.80
2022-10-19T00:29:22.310Z,15.84
2022-10-19T00:31:50.325Z,15.67
2022-10-19T00:34:18.230Z,15.81
2022-10-19T00:36:46.450Z,15.55
2022-10-19T00:39:15.922Z,15.53
2022-10-19T00:41:46.968Z,15.69
2022-10-19T00:44:51.949Z,15.41
2022-10-19T00:47:23.471Z,15.64
2022-10-19T00:49:51.267Z,15.64
2022-10-19T00:52:21.941Z,15.55
2022-10-19T00:54:52.502Z,15.52
2022-10-19T00:57:22.164Z,15.58
2022-10-19T00:59:50.542Z,15.56
2022-10-19T01:02:18.541Z,15.50
2022-10-19T01:04:49.800Z,15.31
2022-10-19T01:07:17.834Z,15.59
2022-10-19T01:09:45.510Z,15.72
2022-10-19T01:12:34.114Z,15.74
2022-10-19T01:15:16.357Z,15.55
2022-10-19T01:17:54.116Z,15.80
2022-10-19T01:20:53.761Z,15.61
2022-10-19T01:23:56.780Z,15.56
2022-10-19T01:27:05.307Z,15.83
2022-10-19T01:29:51.914Z,15.87
2022-10-19T01:32:25.289Z,15.70
2022-10-19T01:35:00.957Z,15.51
2022-10-19T01:37:37.266Z,15.37
2022-10-19T01:40:11.669Z,15.57
2022-10-19T01:42:47.470Z,15.25
2022-10-19T01:45:20.964Z,15.36
2022-10-19T01:47:54.004Z,15.47
2022-10-19T01:50:29.678Z,15.42
2022-10-19T01:52:58.742Z,15.53
2022-10-19T01:55:28.955Z,15.86
2022-10-19T01:58:01.695Z,15.78
2022-10-19T02:00:33.038Z,15.42
2022-10-19T02:03:01.793Z,15.59
2022-10-19T02:05:33.482Z,15.55
2022-10-19T02:08:04.858Z,15.94
2022-10-19T02:10:36.123Z,15.82
2022-10-19T02:13:05.500Z,16.01
2022-10-19T02:15:37.281Z,16.11
2022-10-19T02:18:07.019Z,15.52
2022-10-19T02:20:37.031Z,15.44
2022-10-19T02:23:05.675Z,15.32
2022-10-19T02:25:34.258Z,15.55
2022-10-19T02:28:03.372Z,15.52
2022-10-19T02:30:31.102Z,15.25
2022-10-19T02:33:00.106Z,15.21
2022-10-19T02:35:27.945Z,15.18
2022-10-19T02:37:58.786Z,15.30
2022-10-19T02:40:28.327Z,15.02
2022-10-19T02:43:01.185Z,14.75
2022-10-19T02:45:32.012Z,14.81
2022-10-19T02:48:03.387Z,15.04
2022-10-19T02:50:31.466Z,14.90
2022-10-19T02:52:59.418Z,14.95
2022-10-19T02:55:27.263Z,14.49
2022-10-19T02:57:54.825Z,14.65
2022-10-19T03:00:22.396Z,14.76
2022-10-19T03:02:49.947Z,14.84
2022-10-19T03:05:18.851Z,14.89
2022-10-19T03:07:46.826Z,14.88
2022-10-19T03:10:14.379Z,14.80
2022-10-19T03:12:41.921Z,14.67
2022-10-19T03:15:11.631Z,14.39
2022-10-19T03:17:39.387Z,14.44
2022-10-19T03:20:08.226Z,14.26
2022-10-19T03:22:37.159Z,14.24
2022-10-19T03:25:05.268Z,14.23
2022-10-19T03:27:33.010Z,14.19
2022-10-19T03:30:00.810Z,14.46
2022-10-19T03:32:28.370Z,14.55
2022-10-19T03:34:55.934Z,14.28
2022-10-19T03:37:23.502Z,14.45
2022-10-19T03:39:52.430Z,14.17
2022-10-19T03:42:20.065Z,14.15
2022-10-19T03:44:47.631Z,14.15
2022-10-19T03:47:15.171Z,14.22
2022-10-19T03:49:43.543Z,14.19
2022-10-19T03:52:11.152Z,14.24
2022-10-19T03:54:38.747Z,14.08
2022-10-19T03:57:07.742Z,14.12
2022-10-19T03:59:35.466Z,14.04
2022-10-19T04:02:04.007Z,14.02
2022-10-19T04:04:31.528Z,14.09
2022-10-19T04:06:59.073Z,14.19
2022-10-19T04:09:26.668Z,14.26
2022-10-19T04:11:54.253Z,14.33
2022-10-19T04:14:32.781Z,14.33
2022-10-19T04:17:01.207Z,14.30
2022-10-19T04:19:28.789Z,14.54
2022-10-19T04:21:56.724Z,14.57
2022-10-19T04:24:24.434Z,14.39
2022-10-19T04:26:53.424Z,14.49
2022-10-19T04:29:29.427Z,14.15
2022-10-19T04:31:58.851Z,14.25
2022-10-19T04:34:26.392Z,14.30
2022-10-19T04:36:54.202Z,14.60
2022-10-19T04:39:21.786Z,14.27
2022-10-19T04:41:49.360Z,14.18
2022-10-19T04:44:17.026Z,14.45
2022-10-19T04:46:46.025Z,14.37
2022-10-19T04:49:16.470Z,14.54
2022-10-19T04:51:46.982Z,14.39
2022-10-19T04:54:14.580Z,14.43
2022-10-19T04:56:42.179Z,14.42
2022-10-19T04:59:10.747Z,14.37
2022-10-19T05:01:38.730Z,14.56
2022-10-19T05:04:11.231Z,14.51
2022-10-19T05:06:39.262Z,14.61
2022-10-19T05:09:07.375Z,14.64
2022-10-19T05:11:34.974Z,14.73
2022-10-19T05:14:03.190Z,14.52
2022-10-19T05:16:30.741Z,14.68
2022-10-19T05:18:59.574Z,14.73
2022-10-19T05:21:29.652Z,14.85
2022-10-19T05:23:58.437Z,14.62
2022-10-19T05:26:27.758Z,14.44
2022-10-19T05:28:57.811Z,14.49
2022-10-19T05:31:27.467Z,14.18
2022-10-19T05:33:56.093Z,14.53
2022-10-19T05:36:26.545Z,14.39
2022-10-19T05:38:57.534Z,14.61
2022-10-19T05:41:26.865Z,14.52
2022-10-19T05:43:55.999Z,14.58
2022-10-19T05:46:24.580Z,14.43
2022-10-19T05:48:52.259Z,14.57
2022-10-19T05:51:22.458Z,14.52
2022-10-19T05:53:50.383Z,14.85
2022-10-19T05:56:20.510Z,14.81
2022-10-19T05:58:48.658Z,15.02
2022-10-19T06:01:18.847Z,14.90
2022-10-19T06:03:47.364Z,14.89
2022-10-19T06:06:14.944Z,15.10
2022-10-19T06:08:42.521Z,14.68
2022-10-19T06:11:12.518Z,14.50
2022-10-19T06:13:43.521Z,14.67
2022-10-19T06:16:12.617Z,14.86
2022-10-19T06:18:40.555Z,14.77
2022-10-19T06:21:11.604Z,14.74
2022-10-19T06:23:39.384Z,14.73
2022-10-19T06:26:08.679Z,14.86
2022-10-19T06:28:37.468Z,14.75
2022-10-19T06:31:09.336Z,14.66
2022-10-19T06:33:37.750Z,14.46
2022-10-19T06:36:09.482Z,14.49
2022-10-19T06:38:37.296Z,14.41
2022-10-19T06:41:05.289Z,14.29
2022-10-19T06:43:33.402Z,14.19
2022-10-19T06:46:06.535Z,14.09
2022-10-19T06:48:34.129Z,14.47
2022-10-19T06:51:06.221Z,14.25
2022-10-19T06:53:34.418Z,14.40
2022-10-19T06:56:04.081Z,14.40
2022-10-19T06:58:31.793Z,14.47
2022-10-19T07:01:00.995Z,14.22
2022-10-19T07:03:31.038Z,14.38
2022-10-19T07:06:00.527Z,14.57
2022-10-19T07:08:30.109Z,14.40
2022-10-19T07:10:59.646Z,14.57
2022-10-19T07:13:28.877Z,14.15
2022-10-19T07:15:58.255Z,14.23
2022-10-19T07:18:26.330Z,14.02
2022-10-19T07:21:00.193Z,14.23
2022-10-19T07:23:29.674Z,14.38
2022-10-19T07:26:01.475Z,14.02
2022-10-19T07:28:31.367Z,14.34
2022-10-19T07:30:58.917Z,14.30
2022-10-19T07:33:26.454Z,14.53
2022-10-19T07:36:01.629Z,14.73
2022-10-19T07:38:29.989Z,14.53
2022-10-19T07:41:02.168Z,14.70
2022-10-19T07:43:29.985Z,14.42
2022-10-19T07:46:02.054Z,14.61
2022-10-19T07:48:29.957Z,14.63
2022-10-19T07:50:57.522Z,14.45
2022-10-19T07:53:26.448Z,14.43
2022-10-19T07:55:53.979Z,14.68
2022-10-19T07:58:21.554Z,14.66
2022-10-19T08:00:49.081Z,14.85
2022-10-19T08:03:57.522Z,14.89
2022-10-19T08:06:06.407Z,15.10
2022-10-19T08:08:36.191Z,15.03
2022-10-19T08:11:08.155Z,14.84
2022-10-19T08:13:35.687Z,14.84
2022-10-19T08:16:03.349Z,14.83
2022-10-19T08:21:03.484Z,15.20
2022-10-19T08:23:31.071Z,15.27
2022-10-19T08:26:00.128Z,14.92
2022-10-19T08:28:27.686Z,14.88
2022-10-19T08:30:58.803Z,14.97
2022-10-19T08:33:27.254Z,14.83
2022-10-19T08:35:54.850Z,15.05
2022-10-19T08:38:22.394Z,15.09
2022-10-19T08:40:50.156Z,15.13
2022-10-19T08:43:27.484Z,15.40
2022-10-19T08:46:02.273Z,15.15
2022-10-19T08:48:33.182Z,15.03
2022-10-19T08:51:01.880Z,14.68
2022-10-19T08:53:38.126Z,14.60
2022-10-19T08:56:38.928Z,14.50
2022-10-19T08:59:15.019Z,14.89
2022-10-19T09:01:47.905Z,14.53
2022-10-19T09:04:22.564Z,14.95
2022-10-19T09:07:00.637Z,14.74
2022-10-19T09:09:31.407Z,14.79
2022-10-19T09:12:04.905Z,14.68
2022-10-19T09:14:40.296Z,14.94
2022-10-19T09:17:14.541Z,15.30
2022-10-19T09:19:42.387Z,14.95
2022-10-19T09:22:19.935Z,15.28
2022-10-19T09:24:51.702Z,15.13
2022-10-19T09:27:23.001Z,14.91
2022-10-19T09:29:56.805Z,15.14
2022-10-19T09:32:28.814Z,15.29
2022-10-19T09:35:01.059Z,15.15
2022-10-19T09:39:57.855Z,15.25
2022-10-19T09:42:29.345Z,15.22
2022-10-19T09:45:00.247Z,15.13
2022-10-19T09:47:34.416Z,15.40
2022-10-19T09:50:20.235Z,15.25
2022-10-19T09:52:49.454Z,15.02
2022-10-19T09:55:29.466Z,14.91
2022-10-19T09:58:03.787Z,15.26
2022-10-19T10:00:36.873Z,15.27
2022-10-19T10:03:07.443Z,15.29
2022-10-19T10:05:37.937Z,15.44
2022-10-19T10:08:13.179Z,15.57
2022-10-19T10:10:46.204Z,15.36
2022-10-19T10:13:18.960Z,15.31
2022-10-19T10:15:50.507Z,15.73
2022-10-19T10:18:19.850Z,15.30
2022-10-19T10:20:59.244Z,15.50
2022-10-19T10:23:32.146Z,15.68
2022-10-19T10:26:01.138Z,15.36
2022-10-19T10:28:30.465Z,15.72
2022-10-19T10:31:04.442Z,15.47
2022-10-19T10:36:26.322Z,15.81
2022-10-19T10:39:04.297Z,15.21
2022-10-19T10:41:32.624Z,15.14
2022-10-19T10:44:04.848Z,15.53
2022-10-19T10:46:38.181Z,15.66
2022-10-19T10:49:08.114Z,15.76
2022-10-19T10:51:39.950Z,15.19
2022-10-19T10:54:16.809Z,15.22
2022-10-19T10:56:45.428Z,15.39
2022-10-19T10:59:19.684Z,15.45
2022-10-19T11:02:02.314Z,15.35
2022-10-19T11:04:36.408Z,15.21
2022-10-19T11:07:17.127Z,15.55
2022-10-19T11:09:51.836Z,15.33
2022-10-19T11:12:26.029Z,15.54
2022-10-19T11:15:01.739Z,15.42
2022-10-19T11:17:34.033Z,15.41
2022-10-19T11:20:01.937Z,15.55
2022-10-19T11:22:36.231Z,15.13
2022-10-19T11:25:20.799Z,15.52
2022-10-19T11:28:00.575Z,15.65
2022-10-19T11:30:28.589Z,15.70
2022-10-19T11:33:05.189Z,15.99
2022-10-19T11:35:47.659Z,16.24
2022-10-19T11:38:35.658Z,16.45
2022-10-19T11:41:18.682Z,16.63
2022-10-19T11:44:03.980Z,16.68
2022-10-19T11:46:40.209Z,16.97
2022-10-19T11:49:24.933Z,17.20
2022-10-19T11:51:57.468Z,17.40
2022-10-19T11:54:35.991Z,17.10
2022-10-19T11:57:11.844Z,17.46
2022-10-19T12:00:00.182Z,17.46
2022-10-19T12:03:12.250Z,17.49
2022-10-19T12:05:55.250Z,17.66
2022-10-19T12:08:34.398Z,17.69
2022-10-19T12:11:12.791Z,17.44
2022-10-19T12:13:43.227Z,17.47
2022-10-19T12:16:12.625Z,17.82
2022-10-19T12:18:44.557Z,17.73
2022-10-19T12:21:18.970Z,17.66
2022-10-19T12:23:47.994Z,17.73
2022-10-19T12:28:54.568Z,18.06
2022-10-19T12:31:22.932Z,18.08
2022-10-19T12:33:57.808Z,17.93
2022-10-19T12:36:35.897Z,17.98
2022-10-19T12:39:13.190Z,17.78
2022-10-19T12:41:46.926Z,18.03
2022-10-19T12:44:41.457Z,18.03
2022-10-19T12:47:12.427Z,18.23
2022-10-19T12:49:48.771Z,17.95
2022-10-19T12:52:35.490Z,17.88
2022-10-19T12:55:24.882Z,17.87
2022-10-19T12:58:01.126Z,17.24
2022-10-19T13:00:32.052Z,17.10
2022-10-19T13:03:03.891Z,17.32
2022-10-19T13:05:33.289Z,17.29
2022-10-19T13:08:07.986Z,17.30
2022-10-19T13:10:38.649Z,17.36
2022-10-19T13:13:06.542Z,17.38
2022-10-19T13:15:52.709Z,17.23
2022-10-19T13:19:07.098Z,16.76
2022-10-19T13:22:24.141Z,17.19
2022-10-19T13:25:28.363Z,17.14
2022-10-19T13:27:58.075Z,16.83
2022-10-19T13:31:07.071Z,16.90
2022-10-19T13:33:45.847Z,16.85
2022-10-19T13:36:14.008Z,16.62
2022-10-19T13:38:44.254Z,17.10
2022-10-19T13:41:18.312Z,17.02
2022-10-19T13:43:54.217Z,16.77
2022-10-19T13:46:27.452Z,17.19
2022-10-19T13:49:22.720Z,17.31
2022-10-19T13:52:04.634Z,17.44
2022-10-19T13:54:59.132Z,17.32
2022-10-19T13:57:47.817Z,17.18
2022-10-19T14:00:19.701Z,17.40
2022-10-19T14:03:19.638Z,17.45
2022-10-19T14:06:18.447Z,17.38
2022-10-19T14:09:10.199Z,17.08
2022-10-19T14:11:40.830Z,17.08
2022-10-19T14:14:14.767Z,17.35
2022-10-19T14:16:59.806Z,17.72
2022-10-19T14:19:33.678Z,17.74
2022-10-19T14:22:02.783Z,17.69
2022-10-19T14:24:32.863Z,17.50
2022-10-19T14:27:02.903Z,17.45
2022-10-19T14:29:34.639Z,17.70
2022-10-19T14:32:02.491Z,17.76
2022-10-19T14:34:30.119Z,17.57
2022-10-19T14:36:57.744Z,17.61
2022-10-19T14:39:30.604Z,17.56
2022-10-19T14:42:00.459Z,17.43
2022-10-19T14:44:42.279Z,16.89
2022-10-19T14:47:22.431Z,17.00
2022-10-19T14:49:50.689Z,16.97
2022-10-19T14:52:25.567Z,16.89
2022-10-19T14:54:56.586Z,16.94
2022-10-19T14:57:29.481Z,17.28
2022-10-19T15:00:01.780Z,17.05
2022-10-19T15:02:33.155Z,17.27
2022-10-19T15:05:04.366Z,16.84
2022-10-19T15:07:38.077Z,17.02
2022-10-19T15:10:09.162Z,17.10
2022-10-19T15:12:40.887Z,17.15
2022-10-19T15:15:16.409Z,17.18
2022-10-19T15:17:52.311Z,17.04
2022-10-19T15:20:29.405Z,17.02
2022-10-19T15:22:57.926Z,17.15
2022-10-19T15:25:33.859Z,16.92
2022-10-19T15:28:19.827Z,16.95
2022-10-19T15:30:59.203Z,16.93
2022-10-19T15:33:27.038Z,16.98
2022-10-19T15:36:06.849Z,16.90
2022-10-19T15:38:35.586Z,17.19
2022-10-19T15:41:05.210Z,16.88
2022-10-19T15:43:54.973Z,16.61
2022-10-19T15:46:34.684Z,16.77
2022-10-19T15:49:12.372Z,16.75
2022-10-19T15:51:47.576Z,16.96
2022-10-19T15:54:17.208Z,16.84
2022-10-19T15:56:46.553Z,16.99
2022-10-19T15:59:17.343Z,16.86
2022-10-19T16:01:52.519Z,16.91
2022-10-19T16:04:22.710Z,16.86
2022-10-19T16:06:50.313Z,16.66
2022-10-19T16:09:19.856Z,16.25
2022-10-19T16:11:48.246Z,16.21
2022-10-19T16:16:45.662Z,16.29
2022-10-19T16:19:13.221Z,16.27
2022-10-19T16:21:40.929Z,16.37
2022-10-19T16:24:08.555Z,16.01
2022-10-19T16:26:36.114Z,16.24
2022-10-19T16:29:03.691Z,16.14
2022-10-19T16:31:31.705Z,16.11
2022-10-19T16:34:00.731Z,16.07
2022-10-19T16:36:28.291Z,16.11
2022-10-19T16:38:55.861Z,16.01
2022-10-19T16:41:23.659Z,16.03
2022-10-19T16:43:55.599Z,15.77
2022-10-19T16:46:23.703Z,15.88
2022-10-19T16:48:51.568Z,15.94
2022-10-19T16:51:35.342Z,15.75
2022-10-19T16:54:04.305Z,15.89
2022-10-19T16:56:33.024Z,15.94
2022-10-19T16:59:02.945Z,15.61
2022-10-19T17:01:31.865Z,15.69
2022-10-19T17:03:59.931Z,15.78
2022-10-19T17:06:29.458Z,15.69
2022-10-19T17:11:45.878Z,15.86
2022-10-19T17:14:13.991Z,15.73
2022-10-19T17:16:41.830Z,15.79
2022-10-19T17:19:11.232Z,15.58
2022-10-19T17:21:42.129Z,15.74
2022-10-19T17:24:20.239Z,15.44
2022-10-19T17:26:49.826Z,15.25
2022-10-19T17:29:17.619Z,15.55
2022-10-19T17:31:45.355Z,15.55
2022-10-19T17:34:13.201Z,15.39
2022-10-19T17:36:44.488Z,15.47
2022-10-19T17:39:14.545Z,15.23
2022-10-19T17:41:42.109Z,15.42
2022-10-19T17:44:09.765Z,15.34
2022-10-19T17:46:37.476Z,15.68
2022-10-19T17:49:05.421Z,15.49
2022-10-19T17:51:36.119Z,15.50
2022-10-19T17:54:07.476Z,15.39
2022-10-19T17:56:35.483Z,15.26
2022-10-19T17:59:03.665Z,15.23
2022-10-19T18:01:31.656Z,14.99
2022-10-19T18:03:59.310Z,14.82
2022-10-19T18:06:29.454Z,14.81
2022-10-19T18:08:58.524Z,14.73
2022-10-19T18:11:29.287Z,14.89
2022-10-19T18:13:58.386Z,14.49
2022-10-19T18:16:28.542Z,14.77
2022-10-19T18:18:58.906Z,14.98
2022-10-19T18:21:30.058Z,14.96
2022-10-19T18:23:59.782Z,14.86
2022-10-19T18:26:30.956Z,14.72
2022-10-19T18:29:00.761Z,14.82
2022-10-19T18:31:30.659Z,14.66
2022-10-19T18:34:02.846Z,14.88
2022-10-19T18:36:31.210Z,14.85
2022-10-19T18:39:01.066Z,14.86
2022-10-19T18:41:30.737Z,14.88
2022-10-19T18:44:01.220Z,14.86
2022-10-19T18:46:29.104Z,14.79
2022-10-19T18:48:56.911Z,14.79
2022-10-19T18:51:25.092Z,14.68
2022-10-19T18:53:53.078Z,14.66
2022-10-19T18:56:22.443Z,14.66
2022-10-19T18:58:52.189Z,14.39
2022-10-19T19:01:22.814Z,14.79
2022-10-19T19:03:53.747Z,14.55
2022-10-19T19:06:23.489Z,14.68
2022-10-19T19:08:52.075Z,14.45
2022-10-19T19:11:21.642Z,14.42
2022-10-19T19:13:52.178Z,14.68
2022-10-19T19:16:20.297Z,14.81
2022-10-19T19:18:48.536Z,14.31
2022-10-19T19:21:18.409Z,14.39
2022-10-19T19:23:46.527Z,14.41
2022-10-19T19:26:15.114Z,14.32
2022-10-19T19:28:45.272Z,14.41
2022-10-19T19:31:16.826Z,14.05
2022-10-19T19:33:44.952Z,13.91
2022-10-19T19:36:14.910Z,14.04
2022-10-19T19:38:42.732Z,14.32
2022-10-19T19:41:13.524Z,14.36
2022-10-19T19:43:42.444Z,14.26
2022-10-19T19:46:13.367Z,14.56
2022-10-19T19:48:43.562Z,14.61
2022-10-19T19:51:13.367Z,14.59
2022-10-19T19:53:41.556Z,14.41
2022-10-19T19:56:11.026Z,14.11
2022-10-19T19:58:38.999Z,14.06
2022-10-19T20:01:12.430Z,13.64
2022-10-19T20:03:43.328Z,14.04
2022-10-19T20:06:11.414Z,14.38
2022-10-19T20:08:39.589Z,14.01
2022-10-19T20:11:09.345Z,13.75
2022-10-19T20:13:37.114Z,14.15
2022-10-19T20:16:09.277Z,14.21
2022-10-19T20:18:37.082Z,14.38
2022-10-19T20:21:06.866Z,14.31
2022-10-19T20:23:34.665Z,14.19
2022-10-19T20:26:02.374Z,14.11
2022-10-19T20:28:32.393Z,14.35
2022-10-19T20:31:01.582Z,14.54
2022-10-19T20:33:30.680Z,14.58
2022-10-19T20:35:58.290Z,14.43
2022-10-19T20:38:27.567Z,14.33
2022-10-19T20:40:55.111Z,14.37
2022-10-19T20:43:22.658Z,14.41
2022-10-19T20:45:50.191Z,14.36
2022-10-19T20:48:17.761Z,14.00
2022-10-19T20:50:45.376Z,13.86
2022-10-19T20:53:12.921Z,13.93
2022-10-19T20:55:41.888Z,13.78
2022-10-19T20:58:09.423Z,13.71
2022-10-19T21:00:36.982Z,13.80
2022-10-19T21:03:04.706Z,14.03
2022-10-19T21:05:32.236Z,13.84
2022-10-19T21:07:59.808Z,13.94
2022-10-19T21:10:27.474Z,14.00
2022-10-19T21:12:56.341Z,14.08
2022-10-19T21:15:24.282Z,14.01
2022-10-19T21:17:51.815Z,14.00
2022-10-19T21:20:20.330Z,13.84
2022-10-19T21:22:47.856Z,14.13
2022-10-19T21:25:15.595Z,14.01
2022-10-19T21:27:43.179Z,14.21
2022-10-19T21:30:13.593Z,14.24
2022-10-19T21:32:41.155Z,13.90
2022-10-19T21:35:09.116Z,13.95
2022-10-19T21:37:36.964Z,13.80
2022-10-19T21:40:05.175Z,13.78
2022-10-19T21:42:32.742Z,13.66
2022-10-19T21:45:11.658Z,13.77
2022-10-19T21:47:49.961Z,13.65
2022-10-19T21:50:18.068Z,13.74
2022-10-19T21:52:45.626Z,13.63
2022-10-19T21:55:13.170Z,13.94
2022-10-19T21:57:40.707Z,13.89
2022-10-19T22:00:09.177Z,13.76
2022-10-19T22:02:36.698Z,13.65
2022-10-19T22:05:06.152Z,13.68
2022-10-19T22:07:33.988Z,13.56
2022-10-19T22:10:01.679Z,13.49
2022-10-19T22:12:29.310Z,13.22
2022-10-19T22:14:56.879Z,13.16
2022-10-19T22:17:24.414Z,13.13
2022-10-19T22:19:52.001Z,12.76
2022-10-19T22:22:20.927Z,13.04
2022-10-19T22:24:48.509Z,12.96
2022-10-19T22:27:16.214Z,13.00
2022-10-19T22:29:44.002Z,12.75
2022-10-19T22:32:11.674Z,12.65
2022-10-19T22:34:40.027Z,12.72
2022-10-19T22:37:07.565Z,12.58
2022-10-19T22:39:36.510Z,12.60
2022-10-19T22:42:04.217Z,12.43
2022-10-19T22:44:32.422Z,12.48
2022-10-19T22:47:00.399Z,12.43
2022-10-19T22:49:27.934Z,12.46
2022-10-19T22:51:55.465Z,12.32
2022-10-19T22:54:23.037Z,12.49
2022-10-19T22:56:51.951Z,12.50
2022-10-19T22:59:19.595Z,12.50
2022-10-19T23:01:47.212Z,12.52
2022-10-19T23:04:14.927Z,12.54
2022-10-19T23:06:42.551Z,12.51
2022-10-19T23:09:10.124Z,12.55
2022-10-19T23:11:37.680Z,12.48
2022-10-19T23:14:06.557Z,12.40
2022-10-19T23:16:34.077Z,12.42
2022-10-19T23:19:01.647Z,12.33
2022-10-19T23:21:29.251Z,12.10
2022-10-19T23:23:56.843Z,12.40
2022-10-19T23:26:25.504Z,12.23
2022-10-19T23:28:53.362Z,12.26
2022-10-19T23:31:24.710Z,12.39
2022-10-19T23:33:52.837Z,12.37
2022-10-19T23:36:21.894Z,12.20
2022-10-19T23:38:50.702Z,12.36
2022-10-19T23:41:19.307Z,12.44
2022-10-19T23:43:47.253Z,12.10
2022-10-19T23:46:14.984Z,12.41
2022-10-19T23:48:44.085Z,12.36
2022-10-19T23:51:13.538Z,12.45
2022-10-19T23:53:43.210Z,12.23
2022-10-19T23:56:13.672Z,12.32
2022-10-19T23:58:41.485Z,12.51
